sensor_id;sensor_type;location;lat;lon;timestamp;temperature;humidity
75786;DHT22;64402;44.708;37.644;2023-01-01T00:02:02;11.53;85.56
75786;DHT22;64402;44.708;37.644;2023-01-01T00:04:29;11.54;85.32
75786;DHT22;64402;44.708;37.644;2023-01-01T00:06:56;11.51;86.00
75786;DHT22;64402;44.708;37.644;2023-01-01T00:09:32;11.51;85.67
75786;DHT22;64402;44.708;37.644;2023-01-01T00:12:17;11.46;85.41
75786;DHT22;64402;44.708;37.644;2023-01-01T00:14:44;11.46;85.62
75786;DHT22;64402;44.708;37.644;2023-01-01T00:17:10;11.51;85.22
75786;DHT22;64402;44.708;37.644;2023-01-01T00:19:37;11.55;85.21
75786;DHT22;64402;44.708;37.644;2023-01-01T00:22:03;11.54;85.21
75786;DHT22;64402;44.708;37.644;2023-01-01T00:24:29;11.51;84.18
75786;DHT22;64402;44.708;37.644;2023-01-01T00:27:00;11.49;84.10
75786;DHT22;64402;44.708;37.644;2023-01-01T00:29:27;11.52;83.89
75786;DHT22;64402;44.708;37.644;2023-01-01T00:31:55;11.52;82.85
75786;DHT22;64402;44.708;37.644;2023-01-01T00:34:21;11.52;82.25
75786;DHT22;64402;44.708;37.644;2023-01-01T00:36:47;11.53;82.31
75786;DHT22;64402;44.708;37.644;2023-01-01T00:39:13;11.54;82.10
75786;DHT22;64402;44.708;37.644;2023-01-01T00:41:50;11.53;81.78
75786;DHT22;64402;44.708;37.644;2023-01-01T00:44:16;11.49;81.58
75786;DHT22;64402;44.708;37.644;2023-01-01T00:46:42;11.53;81.11
75786;DHT22;64402;44.708;37.644;2023-01-01T00:49:08;11.55;80.89
75786;DHT22;64402;44.708;37.644;2023-01-01T00:51:35;11.54;79.78
75786;DHT22;64402;44.708;37.644;2023-01-01T00:54:01;11.48;79.76
75786;DHT22;64402;44.708;37.644;2023-01-01T00:56:27;11.46;81.02
75786;DHT22;64402;44.708;37.644;2023-01-01T00:59:03;11.48;80.52
75786;DHT22;64402;44.708;37.644;2023-01-01T01:01:30;11.52;80.85
75786;DHT22;64402;44.708;37.644;2023-01-01T01:03:58;11.53;81.38
75786;DHT22;64402;44.708;37.644;2023-01-01T01:06:24;11.58;81.94
75786;DHT22;64402;44.708;37.644;2023-01-01T01:08:50;11.56;84.17
75786;DHT22;64402;44.708;37.644;2023-01-01T01:11:20;11.57;84.21
75786;DHT22;64402;44.708;37.644;2023-01-01T01:13:56;11.54;85.00
75786;DHT22;64402;44.708;37.644;2023-01-01T01:16:31;11.48;83.02
75786;DHT22;64402;44.708;37.644;2023-01-01T01:18:59;11.48;81.07
75786;DHT22;64402;44.708;37.644;2023-01-01T01:21:30;11.41;79.91
75786;DHT22;64402;44.708;37.644;2023-01-01T01:23:58;11.41;79.95
75786;DHT22;64402;44.708;37.644;2023-01-01T01:26:27;11.45;79.68
75786;DHT22;64402;44.708;37.644;2023-01-01T01:29:00;11.47;79.61
75786;DHT22;64402;44.708;37.644;2023-01-01T01:31:29;11.52;79.43
75786;DHT22;64402;44.708;37.644;2023-01-01T01:33:56;11.52;79.84
75786;DHT22;64402;44.708;37.644;2023-01-01T01:36:23;11.55;80.52
75786;DHT22;64402;44.708;37.644;2023-01-01T01:38:50;11.53;82.47
75786;DHT22;64402;44.708;37.644;2023-01-01T01:41:27;11.49;82.89
75786;DHT22;64402;44.708;37.644;2023-01-01T01:46:38;11.49;83.03
75786;DHT22;64402;44.708;37.644;2023-01-01T01:49:29;11.48;83.23
75786;DHT22;64402;44.708;37.644;2023-01-01T01:51:58;11.46;82.75
75786;DHT22;64402;44.708;37.644;2023-01-01T01:54:26;11.46;82.65
75786;DHT22;64402;44.708;37.644;2023-01-01T01:57:00;11.45;82.26
75786;DHT22;64402;44.708;37.644;2023-01-01T01:59:31;11.43;81.84
75786;DHT22;64402;44.708;37.644;2023-01-01T02:02:19;11.41;81.70
75786;DHT22;64402;44.708;37.644;2023-01-01T02:04:47;11.43;81.60
75786;DHT22;64402;44.708;37.644;2023-01-01T02:07:14;11.44;81.10
75786;DHT22;64402;44.708;37.644;2023-01-01T02:09:42;11.46;80.96
75786;DHT22;64402;44.708;37.644;2023-01-01T02:12:19;11.49;80.82
75786;DHT22;64402;44.708;37.644;2023-01-01T02:14:46;11.49;80.65
75786;DHT22;64402;44.708;37.644;2023-01-01T02:17:32;11.52;80.25
75786;DHT22;64402;44.708;37.644;2023-01-01T02:22:42;11.47;80.23
75786;DHT22;64402;44.708;37.644;2023-01-01T02:30:50;11.42;79.18
75786;DHT22;64402;44.708;37.644;2023-01-01T02:33:21;11.44;79.09
75786;DHT22;64402;44.708;37.644;2023-01-01T02:35:55;11.41;78.95
75786;DHT22;64402;44.708;37.644;2023-01-01T02:38:34;11.38;79.02
75786;DHT22;64402;44.708;37.644;2023-01-01T02:41:04;11.37;79.11
75786;DHT22;64402;44.708;37.644;2023-01-01T02:43:32;11.34;79.46
75786;DHT22;64402;44.708;37.644;2023-01-01T02:45:58;11.37;79.67
75786;DHT22;64402;44.708;37.644;2023-01-01T02:48:44;11.33;79.69
75786;DHT22;64402;44.708;37.644;2023-01-01T02:56:57;11.33;79.88
75786;DHT22;64402;44.708;37.644;2023-01-01T03:11:13;11.31;80.74
75786;DHT22;64402;44.708;37.644;2023-01-01T03:13:50;11.32;80.62
75786;DHT22;64402;44.708;37.644;2023-01-01T03:16:33;11.32;80.28
75786;DHT22;64402;44.708;37.644;2023-01-01T03:19:15;11.34;79.62
75786;DHT22;64402;44.708;37.644;2023-01-01T03:21:53;11.38;79.33
75786;DHT22;64402;44.708;37.644;2023-01-01T03:24:30;11.40;78.24
75786;DHT22;64402;44.708;37.644;2023-01-01T03:27:02;11.39;78.14
75786;DHT22;64402;44.708;37.644;2023-01-01T03:29:35;11.39;78.12
75786;DHT22;64402;44.708;37.644;2023-01-01T03:32:05;11.36;78.74
75786;DHT22;64402;44.708;37.644;2023-01-01T03:34:38;11.33;78.72
75786;DHT22;64402;44.708;37.644;2023-01-01T03:37:09;11.36;78.82
75786;DHT22;64402;44.708;37.644;2023-01-01T03:39:57;11.34;78.73
75786;DHT22;64402;44.708;37.644;2023-01-01T03:42:37;11.29;78.97
75786;DHT22;64402;44.708;37.644;2023-01-01T03:45:08;11.29;79.48
75786;DHT22;64402;44.708;37.644;2023-01-01T03:47:36;11.28;79.41
75786;DHT22;64402;44.708;37.644;2023-01-01T03:50:03;11.27;78.69
75786;DHT22;64402;44.708;37.644;2023-01-01T03:53:02;11.25;77.37
75786;DHT22;64402;44.708;37.644;2023-01-01T03:55:37;11.22;77.42
75786;DHT22;64402;44.708;37.644;2023-01-01T03:58:20;11.23;77.08
75786;DHT22;64402;44.708;37.644;2023-01-01T04:01:09;11.23;76.70
75786;DHT22;64402;44.708;37.644;2023-01-01T04:03:37;11.26;76.51
75786;DHT22;64402;44.708;37.644;2023-01-01T04:06:16;11.25;76.23
75786;DHT22;64402;44.708;37.644;2023-01-01T04:08:44;11.25;76.17
75786;DHT22;64402;44.708;37.644;2023-01-01T04:11:24;11.25;76.47
75786;DHT22;64402;44.708;37.644;2023-01-01T04:14:37;11.25;76.68
75786;DHT22;64402;44.708;37.644;2023-01-01T04:17:10;11.24;76.51
75786;DHT22;64402;44.708;37.644;2023-01-01T04:19:39;11.20;77.00
75786;DHT22;64402;44.708;37.644;2023-01-01T04:22:05;11.23;77.03
75786;DHT22;64402;44.708;37.644;2023-01-01T04:24:31;11.20;77.25
75786;DHT22;64402;44.708;37.644;2023-01-01T04:26:58;11.23;77.31
75786;DHT22;64402;44.708;37.644;2023-01-01T04:29:24;11.25;77.35
75786;DHT22;64402;44.708;37.644;2023-01-01T04:31:51;11.27;77.72
75786;DHT22;64402;44.708;37.644;2023-01-01T04:34:18;11.25;77.86
75786;DHT22;64402;44.708;37.644;2023-01-01T04:36:44;11.27;78.01
75786;DHT22;64402;44.708;37.644;2023-01-01T04:39:11;11.30;77.91
75786;DHT22;64402;44.708;37.644;2023-01-01T04:41:37;11.31;77.72
75786;DHT22;64402;44.708;37.644;2023-01-01T04:44:03;11.31;77.36
75786;DHT22;64402;44.708;37.644;2023-01-01T04:46:30;11.27;77.10
75786;DHT22;64402;44.708;37.644;2023-01-01T04:48:56;11.27;77.41
75786;DHT22;64402;44.708;37.644;2023-01-01T04:51:22;11.31;76.42
75786;DHT22;64402;44.708;37.644;2023-01-01T04:53:48;11.31;76.26
75786;DHT22;64402;44.708;37.644;2023-01-01T04:56:25;11.31;75.99
75786;DHT22;64402;44.708;37.644;2023-01-01T04:58:51;11.30;75.67
75786;DHT22;64402;44.708;37.644;2023-01-01T05:01:22;11.30;74.77
75786;DHT22;64402;44.708;37.644;2023-01-01T05:03:48;11.29;74.25
75786;DHT22;64402;44.708;37.644;2023-01-01T05:06:15;11.28;73.76
75786;DHT22;64402;44.708;37.644;2023-01-01T05:08:43;11.28;72.99
75786;DHT22;64402;44.708;37.644;2023-01-01T05:11:12;11.28;72.83
75786;DHT22;64402;44.708;37.644;2023-01-01T05:13:41;11.29;72.70
75786;DHT22;64402;44.708;37.644;2023-01-01T05:16:27;11.29;72.45
75786;DHT22;64402;44.708;37.644;2023-01-01T05:18:53;11.25;72.16
75786;DHT22;64402;44.708;37.644;2023-01-01T05:21:25;11.22;72.38
75786;DHT22;64402;44.708;37.644;2023-01-01T05:23:57;11.25;70.95
75786;DHT22;64402;44.708;37.644;2023-01-01T05:26:26;11.26;71.05
75786;DHT22;64402;44.708;37.644;2023-01-01T05:28:57;11.25;70.88
75786;DHT22;64402;44.708;37.644;2023-01-01T05:31:28;11.25;70.87
75786;DHT22;64402;44.708;37.644;2023-01-01T05:33:55;11.27;71.13
75786;DHT22;64402;44.708;37.644;2023-01-01T05:36:24;11.29;72.83
75786;DHT22;64402;44.708;37.644;2023-01-01T05:39:01;11.26;75.17
75786;DHT22;64402;44.708;37.644;2023-01-01T05:41:27;11.24;77.71
75786;DHT22;64402;44.708;37.644;2023-01-01T05:43:55;11.25;77.91
75786;DHT22;64402;44.708;37.644;2023-01-01T05:46:23;11.25;78.40
75786;DHT22;64402;44.708;37.644;2023-01-01T05:48:53;11.24;78.57
75786;DHT22;64402;44.708;37.644;2023-01-01T05:51:26;11.27;78.66
75786;DHT22;64402;44.708;37.644;2023-01-01T05:53:54;11.26;79.13
75786;DHT22;64402;44.708;37.644;2023-01-01T05:56:21;11.28;79.36
75786;DHT22;64402;44.708;37.644;2023-01-01T05:58:47;11.29;79.32
75786;DHT22;64402;44.708;37.644;2023-01-01T06:01:20;11.30;78.92
75786;DHT22;64402;44.708;37.644;2023-01-01T06:03:57;11.32;78.82
75786;DHT22;64402;44.708;37.644;2023-01-01T06:06:29;11.32;79.05
75786;DHT22;64402;44.708;37.644;2023-01-01T06:09:00;11.32;78.93
75786;DHT22;64402;44.708;37.644;2023-01-01T06:11:36;11.33;78.68
75786;DHT22;64402;44.708;37.644;2023-01-01T06:14:03;11.33;78.33
75786;DHT22;64402;44.708;37.644;2023-01-01T06:16:39;11.38;78.24
75786;DHT22;64402;44.708;37.644;2023-01-01T06:19:06;11.37;78.43
75786;DHT22;64402;44.708;37.644;2023-01-01T06:21:32;11.40;78.17
75786;DHT22;64402;44.708;37.644;2023-01-01T06:23:58;11.41;78.04
75786;DHT22;64402;44.708;37.644;2023-01-01T06:26:31;11.46;77.71
75786;DHT22;64402;44.708;37.644;2023-01-01T06:28:59;11.46;77.53
75786;DHT22;64402;44.708;37.644;2023-01-01T06:31:25;11.42;77.78
75786;DHT22;64402;44.708;37.644;2023-01-01T06:33:58;11.39;77.53
75786;DHT22;64402;44.708;37.644;2023-01-01T06:36:25;11.39;77.40
75786;DHT22;64402;44.708;37.644;2023-01-01T06:38:55;11.39;76.95
75786;DHT22;64402;44.708;37.644;2023-01-01T06:41:26;11.43;75.98
75786;DHT22;64402;44.708;37.644;2023-01-01T06:43:56;11.44;74.57
75786;DHT22;64402;44.708;37.644;2023-01-01T06:46:25;11.46;72.93
75786;DHT22;64402;44.708;37.644;2023-01-01T06:48:54;11.51;71.55
75786;DHT22;64402;44.708;37.644;2023-01-01T06:51:24;11.56;70.42
75786;DHT22;64402;44.708;37.644;2023-01-01T06:53:51;11.59;72.78
75786;DHT22;64402;44.708;37.644;2023-01-01T06:56:18;11.58;74.60
75786;DHT22;64402;44.708;37.644;2023-01-01T06:58:45;11.58;75.25
75786;DHT22;64402;44.708;37.644;2023-01-01T07:01:14;11.60;75.63
75786;DHT22;64402;44.708;37.644;2023-01-01T07:03:48;11.56;75.11
75786;DHT22;64402;44.708;37.644;2023-01-01T07:06:15;11.55;74.92
75786;DHT22;64402;44.708;37.644;2023-01-01T07:08:41;11.55;75.18
75786;DHT22;64402;44.708;37.644;2023-01-01T07:11:07;11.56;75.41
75786;DHT22;64402;44.708;37.644;2023-01-01T07:13:34;11.61;74.78
75786;DHT22;64402;44.708;37.644;2023-01-01T07:16:01;11.63;72.38
75786;DHT22;64402;44.708;37.644;2023-01-01T07:18:30;11.64;70.02
75786;DHT22;64402;44.708;37.644;2023-01-01T07:21:02;11.63;68.84
75786;DHT22;64402;44.708;37.644;2023-01-01T07:23:30;11.70;69.38
75786;DHT22;64402;44.708;37.644;2023-01-01T07:25:58;11.76;68.75
75786;DHT22;64402;44.708;37.644;2023-01-01T07:28:24;11.76;68.62
75786;DHT22;64402;44.708;37.644;2023-01-01T07:30:51;11.74;68.81
75786;DHT22;64402;44.708;37.644;2023-01-01T07:33:23;11.78;68.69
75786;DHT22;64402;44.708;37.644;2023-01-01T07:35:50;11.83;67.75
75786;DHT22;64402;44.708;37.644;2023-01-01T07:38:20;11.85;67.76
75786;DHT22;64402;44.708;37.644;2023-01-01T07:40:46;11.86;68.27
75786;DHT22;64402;44.708;37.644;2023-01-01T07:43:13;11.89;69.41
75786;DHT22;64402;44.708;37.644;2023-01-01T07:45:49;11.94;70.14
75786;DHT22;64402;44.708;37.644;2023-01-01T07:48:15;12.00;69.67
75786;DHT22;64402;44.708;37.644;2023-01-01T07:50:42;12.02;68.62
75786;DHT22;64402;44.708;37.644;2023-01-01T07:53:08;12.00;69.12
75786;DHT22;64402;44.708;37.644;2023-01-01T07:55:37;11.99;69.16
75786;DHT22;64402;44.708;37.644;2023-01-01T07:58:13;11.99;69.90
75786;DHT22;64402;44.708;37.644;2023-01-01T08:00:40;12.08;70.26
75786;DHT22;64402;44.708;37.644;2023-01-01T08:03:20;12.16;69.14
75786;DHT22;64402;44.708;37.644;2023-01-01T08:05:46;12.25;67.62
75786;DHT22;64402;44.708;37.644;2023-01-01T08:08:16;12.29;67.23
75786;DHT22;64402;44.708;37.644;2023-01-01T08:10:42;12.31;66.85
75786;DHT22;64402;44.708;37.644;2023-01-01T08:13:09;12.36;67.06
75786;DHT22;64402;44.708;37.644;2023-01-01T08:15:35;12.49;66.57
75786;DHT22;64402;44.708;37.644;2023-01-01T08:18:04;12.70;65.70
75786;DHT22;64402;44.708;37.644;2023-01-01T08:20:31;12.93;63.50
75786;DHT22;64402;44.708;37.644;2023-01-01T08:22:57;13.08;61.44
75786;DHT22;64402;44.708;37.644;2023-01-01T08:25:24;13.30;61.38
75786;DHT22;64402;44.708;37.644;2023-01-01T08:27:52;13.27;61.03
75786;DHT22;64402;44.708;37.644;2023-01-01T08:30:18;13.10;61.22
75786;DHT22;64402;44.708;37.644;2023-01-01T08:32:44;13.08;60.19
75786;DHT22;64402;44.708;37.644;2023-01-01T08:35:11;13.14;60.46
75786;DHT22;64402;44.708;37.644;2023-01-01T08:37:38;13.06;60.59
75786;DHT22;64402;44.708;37.644;2023-01-01T08:40:05;12.95;62.53
75786;DHT22;64402;44.708;37.644;2023-01-01T08:42:31;12.87;63.73
75786;DHT22;64402;44.708;37.644;2023-01-01T08:44:57;12.86;64.69
75786;DHT22;64402;44.708;37.644;2023-01-01T08:47:25;12.80;65.38
75786;DHT22;64402;44.708;37.644;2023-01-01T08:49:53;12.76;65.82
75786;DHT22;64402;44.708;37.644;2023-01-01T08:52:20;12.76;65.65
75786;DHT22;64402;44.708;37.644;2023-01-01T08:54:47;12.76;66.07
75786;DHT22;64402;44.708;37.644;2023-01-01T08:57:16;12.69;65.24
75786;DHT22;64402;44.708;37.644;2023-01-01T08:59:42;12.63;65.25
75786;DHT22;64402;44.708;37.644;2023-01-01T09:02:10;12.73;64.55
75786;DHT22;64402;44.708;37.644;2023-01-01T09:04:36;12.77;63.47
75786;DHT22;64402;44.708;37.644;2023-01-01T09:07:03;13.06;63.73
75786;DHT22;64402;44.708;37.644;2023-01-01T09:09:29;13.61;61.74
75786;DHT22;64402;44.708;37.644;2023-01-01T09:11:57;14.21;60.40
75786;DHT22;64402;44.708;37.644;2023-01-01T09:14:33;14.44;60.83
75786;DHT22;64402;44.708;37.644;2023-01-01T09:16:59;14.52;61.38
75786;DHT22;64402;44.708;37.644;2023-01-01T09:19:26;14.29;62.35
75786;DHT22;64402;44.708;37.644;2023-01-01T09:21:52;14.01;62.83
75786;DHT22;64402;44.708;37.644;2023-01-01T09:24:19;13.83;62.89
75786;DHT22;64402;44.708;37.644;2023-01-01T09:26:48;13.63;63.93
75786;DHT22;64402;44.708;37.644;2023-01-01T09:29:15;13.48;64.22
75786;DHT22;64402;44.708;37.644;2023-01-01T09:31:46;13.26;64.69
75786;DHT22;64402;44.708;37.644;2023-01-01T09:34:13;13.09;64.74
75786;DHT22;64402;44.708;37.644;2023-01-01T09:36:41;13.08;65.01
75786;DHT22;64402;44.708;37.644;2023-01-01T09:39:10;13.17;64.60
75786;DHT22;64402;44.708;37.644;2023-01-01T09:47:17;13.16;65.01
75786;DHT22;64402;44.708;37.644;2023-01-01T09:49:50;13.00;65.66
75786;DHT22;64402;44.708;37.644;2023-01-01T09:52:21;13.14;65.80
75786;DHT22;64402;44.708;37.644;2023-01-01T09:54:59;13.09;65.02
75786;DHT22;64402;44.708;37.644;2023-01-01T09:57:31;12.95;65.10
75786;DHT22;64402;44.708;37.644;2023-01-01T09:59:58;12.87;65.59
75786;DHT22;64402;44.708;37.644;2023-01-01T10:08:20;12.59;66.98
75786;DHT22;64402;44.708;37.644;2023-01-01T10:13:26;12.49;66.71
75786;DHT22;64402;44.708;37.644;2023-01-01T10:16:14;12.48;67.62
75786;DHT22;64402;44.708;37.644;2023-01-01T10:18:46;12.58;67.10
75786;DHT22;64402;44.708;37.644;2023-01-01T10:21:31;12.60;66.56
75786;DHT22;64402;44.708;37.644;2023-01-01T10:30:02;12.52;67.15
75786;DHT22;64402;44.708;37.644;2023-01-01T10:32:35;12.51;67.55
75786;DHT22;64402;44.708;37.644;2023-01-01T10:35:11;12.58;67.65
75786;DHT22;64402;44.708;37.644;2023-01-01T10:37:38;12.58;67.68
75786;DHT22;64402;44.708;37.644;2023-01-01T10:40:23;12.55;68.90
75786;DHT22;64402;44.708;37.644;2023-01-01T10:42:53;12.62;69.45
75786;DHT22;64402;44.708;37.644;2023-01-01T10:45:33;12.75;69.85
75786;DHT22;64402;44.708;37.644;2023-01-01T10:48:23;12.79;69.72
75786;DHT22;64402;44.708;37.644;2023-01-01T10:51:05;12.64;70.23
75786;DHT22;64402;44.708;37.644;2023-01-01T10:58:55;12.47;69.02
75786;DHT22;64402;44.708;37.644;2023-01-01T11:01:27;13.07;67.45
75786;DHT22;64402;44.708;37.644;2023-01-01T11:06:44;13.33;66.62
75786;DHT22;64402;44.708;37.644;2023-01-01T11:12:03;12.67;68.92
75786;DHT22;64402;44.708;37.644;2023-01-01T11:14:37;12.44;69.97
75786;DHT22;64402;44.708;37.644;2023-01-01T11:17:04;12.31;70.14
75786;DHT22;64402;44.708;37.644;2023-01-01T11:19:32;12.15;70.65
75786;DHT22;64402;44.708;37.644;2023-01-01T11:21:59;12.06;71.37
75786;DHT22;64402;44.708;37.644;2023-01-01T11:24:30;12.07;71.14
75786;DHT22;64402;44.708;37.644;2023-01-01T11:27:21;11.96;71.41
75786;DHT22;64402;44.708;37.644;2023-01-01T11:29:48;11.94;71.70
75786;DHT22;64402;44.708;37.644;2023-01-01T11:32:21;12.00;71.58
75786;DHT22;64402;44.708;37.644;2023-01-01T11:35:03;12.05;71.29
75786;DHT22;64402;44.708;37.644;2023-01-01T11:37:37;12.06;70.64
75786;DHT22;64402;44.708;37.644;2023-01-01T11:40:06;12.00;70.89
75786;DHT22;64402;44.708;37.644;2023-01-01T11:42:45;11.91;71.38
75786;DHT22;64402;44.708;37.644;2023-01-01T11:45:25;11.88;71.57
75786;DHT22;64402;44.708;37.644;2023-01-01T11:47:56;11.87;72.10
75786;DHT22;64402;44.708;37.644;2023-01-01T11:50:33;11.88;72.67
75786;DHT22;64402;44.708;37.644;2023-01-01T11:58:31;12.00;72.78
75786;DHT22;64402;44.708;37.644;2023-01-01T12:06:35;12.00;72.09
75786;DHT22;64402;44.708;37.644;2023-01-01T12:09:52;12.03;72.50
75786;DHT22;64402;44.708;37.644;2023-01-01T12:12:42;11.96;72.93
75786;DHT22;64402;44.708;37.644;2023-01-01T12:15:23;11.90;73.47
75786;DHT22;64402;44.708;37.644;2023-01-01T12:18:10;11.91;73.83
75786;DHT22;64402;44.708;37.644;2023-01-01T12:20:47;11.87;74.44
75786;DHT22;64402;44.708;37.644;2023-01-01T12:23:16;11.86;74.65
75786;DHT22;64402;44.708;37.644;2023-01-01T12:25:48;11.84;74.79
75786;DHT22;64402;44.708;37.644;2023-01-01T12:28:34;11.77;75.36
75786;DHT22;64402;44.708;37.644;2023-01-01T12:31:27;11.79;75.25
75786;DHT22;64402;44.708;37.644;2023-01-01T12:34:11;11.72;75.07
75786;DHT22;64402;44.708;37.644;2023-01-01T12:42:49;11.57;75.66
75786;DHT22;64402;44.708;37.644;2023-01-01T12:45:51;11.51;75.39
75786;DHT22;64402;44.708;37.644;2023-01-01T12:48:37;11.51;75.65
75786;DHT22;64402;44.708;37.644;2023-01-01T12:59:35;11.52;75.11
75786;DHT22;64402;44.708;37.644;2023-01-01T13:02:20;11.51;75.15
75786;DHT22;64402;44.708;37.644;2023-01-01T13:04:52;11.46;74.82
75786;DHT22;64402;44.708;37.644;2023-01-01T13:07:34;11.44;74.66
75786;DHT22;64402;44.708;37.644;2023-01-01T13:10:28;11.45;74.87
75786;DHT22;64402;44.708;37.644;2023-01-01T13:12:56;11.47;75.21
75786;DHT22;64402;44.708;37.644;2023-01-01T13:20:40;11.45;73.50
75786;DHT22;64402;44.708;37.644;2023-01-01T13:39:50;11.38;76.15
75786;DHT22;64402;44.708;37.644;2023-01-01T13:42:37;11.37;76.76
75786;DHT22;64402;44.708;37.644;2023-01-01T13:48:13;11.34;77.19
75786;DHT22;64402;44.708;37.644;2023-01-01T14:02:31;11.26;76.85
75786;DHT22;64402;44.708;37.644;2023-01-01T14:05:21;11.25;76.68
75786;DHT22;64402;44.708;37.644;2023-01-01T14:07:54;11.25;76.79
75786;DHT22;64402;44.708;37.644;2023-01-01T14:10:34;11.23;76.78
75786;DHT22;64402;44.708;37.644;2023-01-01T14:18:17;11.24;77.11
75786;DHT22;64402;44.708;37.644;2023-01-01T14:20:48;11.23;77.11
75786;DHT22;64402;44.708;37.644;2023-01-01T14:23:21;11.19;76.89
75786;DHT22;64402;44.708;37.644;2023-01-01T14:26:01;11.16;76.86
75786;DHT22;64402;44.708;37.644;2023-01-01T14:28:31;11.14;76.64
75786;DHT22;64402;44.708;37.644;2023-01-01T14:31:19;11.15;76.60
75786;DHT22;64402;44.708;37.644;2023-01-01T14:33:46;11.17;76.23
75786;DHT22;64402;44.708;37.644;2023-01-01T14:36:23;11.22;75.72
75786;DHT22;64402;44.708;37.644;2023-01-01T14:38:51;11.20;76.08
75786;DHT22;64402;44.708;37.644;2023-01-01T14:41:26;11.23;76.66
75786;DHT22;64402;44.708;37.644;2023-01-01T14:43:57;11.19;77.35
75786;DHT22;64402;44.708;37.644;2023-01-01T14:46:24;11.19;77.53
75786;DHT22;64402;44.708;37.644;2023-01-01T14:48:55;11.15;77.64
75786;DHT22;64402;44.708;37.644;2023-01-01T14:51:28;11.14;77.11
75786;DHT22;64402;44.708;37.644;2023-01-01T14:53:57;11.13;77.15
75786;DHT22;64402;44.708;37.644;2023-01-01T14:56:35;11.11;77.47
75786;DHT22;64402;44.708;37.644;2023-01-01T14:59:22;11.11;76.95
75786;DHT22;64402;44.708;37.644;2023-01-01T15:02:22;11.08;76.76
75786;DHT22;64402;44.708;37.644;2023-01-01T15:04:49;11.05;77.01
75786;DHT22;64402;44.708;37.644;2023-01-01T15:09:47;10.97;77.63
75786;DHT22;64402;44.708;37.644;2023-01-01T15:12:15;10.98;77.54
75786;DHT22;64402;44.708;37.644;2023-01-01T15:14:51;11.00;77.41
75786;DHT22;64402;44.708;37.644;2023-01-01T15:17:21;10.98;77.75
75786;DHT22;64402;44.708;37.644;2023-01-01T15:20:05;10.99;78.15
75786;DHT22;64402;44.708;37.644;2023-01-01T15:22:34;10.98;78.02
75786;DHT22;64402;44.708;37.644;2023-01-01T15:25:02;11.00;77.95
75786;DHT22;64402;44.708;37.644;2023-01-01T15:27:35;11.02;78.04
75786;DHT22;64402;44.708;37.644;2023-01-01T15:30:05;11.03;78.43
75786;DHT22;64402;44.708;37.644;2023-01-01T15:32:37;11.02;78.84
75786;DHT22;64402;44.708;37.644;2023-01-01T15:35:17;11.02;79.37
75786;DHT22;64402;44.708;37.644;2023-01-01T15:37:51;11.00;79.17
75786;DHT22;64402;44.708;37.644;2023-01-01T15:42:46;10.99;77.60
75786;DHT22;64402;44.708;37.644;2023-01-01T15:45:34;10.99;77.31
75786;DHT22;64402;44.708;37.644;2023-01-01T15:53:20;10.96;78.50
75786;DHT22;64402;44.708;37.644;2023-01-01T15:55:59;10.96;78.55
75786;DHT22;64402;44.708;37.644;2023-01-01T15:58:34;10.94;79.01
75786;DHT22;64402;44.708;37.644;2023-01-01T16:01:05;10.93;79.48
75786;DHT22;64402;44.708;37.644;2023-01-01T16:03:32;10.93;80.09
75786;DHT22;64402;44.708;37.644;2023-01-01T16:06:02;10.92;80.24
75786;DHT22;64402;44.708;37.644;2023-01-01T16:08:28;10.92;79.77
75786;DHT22;64402;44.708;37.644;2023-01-01T16:10:54;10.92;79.71
75786;DHT22;64402;44.708;37.644;2023-01-01T16:13:20;10.92;79.14
75786;DHT22;64402;44.708;37.644;2023-01-01T16:18:16;10.88;78.14
75786;DHT22;64402;44.708;37.644;2023-01-01T16:20:43;10.90;77.98
75786;DHT22;64402;44.708;37.644;2023-01-01T16:23:09;10.89;78.17
75786;DHT22;64402;44.708;37.644;2023-01-01T16:25:40;10.90;78.75
75786;DHT22;64402;44.708;37.644;2023-01-01T16:28:06;10.93;79.27
75786;DHT22;64402;44.708;37.644;2023-01-01T16:30:33;10.93;79.96
75786;DHT22;64402;44.708;37.644;2023-01-01T16:32:59;10.92;80.78
75786;DHT22;64402;44.708;37.644;2023-01-01T16:35:36;10.93;80.36
75786;DHT22;64402;44.708;37.644;2023-01-01T16:38:02;10.94;79.98
75786;DHT22;64402;44.708;37.644;2023-01-01T16:40:33;10.95;79.62
75786;DHT22;64402;44.708;37.644;2023-01-01T16:43:00;10.95;79.33
75786;DHT22;64402;44.708;37.644;2023-01-01T16:45:26;10.97;78.85
75786;DHT22;64402;44.708;37.644;2023-01-01T16:48:02;10.99;78.40
75786;DHT22;64402;44.708;37.644;2023-01-01T16:50:29;10.97;79.02
75786;DHT22;64402;44.708;37.644;2023-01-01T16:52:55;10.99;79.35
75786;DHT22;64402;44.708;37.644;2023-01-01T16:55:21;11.01;79.68
75786;DHT22;64402;44.708;37.644;2023-01-01T16:57:57;11.01;80.05
75786;DHT22;64402;44.708;37.644;2023-01-01T17:00:28;11.00;79.56
75786;DHT22;64402;44.708;37.644;2023-01-01T17:02:54;11.00;79.49
75786;DHT22;64402;44.708;37.644;2023-01-01T17:05:21;10.98;79.61
75786;DHT22;64402;44.708;37.644;2023-01-01T17:07:47;10.95;79.62
75786;DHT22;64402;44.708;37.644;2023-01-01T17:10:13;10.94;79.98
75786;DHT22;64402;44.708;37.644;2023-01-01T17:12:39;10.97;79.71
75786;DHT22;64402;44.708;37.644;2023-01-01T17:15:06;10.97;79.46
75786;DHT22;64402;44.708;37.644;2023-01-01T17:17:42;10.96;79.22
75786;DHT22;64402;44.708;37.644;2023-01-01T17:20:09;10.95;79.57
75786;DHT22;64402;44.708;37.644;2023-01-01T17:22:38;10.98;80.30
75786;DHT22;64402;44.708;37.644;2023-01-01T17:25:05;10.97;80.76
75786;DHT22;64402;44.708;37.644;2023-01-01T17:27:34;10.95;80.53
75786;DHT22;64402;44.708;37.644;2023-01-01T17:30:06;10.96;80.27
75786;DHT22;64402;44.708;37.644;2023-01-01T17:32:32;10.92;80.34
75786;DHT22;64402;44.708;37.644;2023-01-01T17:35:04;10.86;80.69
75786;DHT22;64402;44.708;37.644;2023-01-01T17:37:31;10.83;81.12
75786;DHT22;64402;44.708;37.644;2023-01-01T17:39:59;10.86;81.03
75786;DHT22;64402;44.708;37.644;2023-01-01T17:42:26;10.87;80.91
75786;DHT22;64402;44.708;37.644;2023-01-01T17:44:52;10.89;81.01
75786;DHT22;64402;44.708;37.644;2023-01-01T17:47:18;10.90;81.26
75786;DHT22;64402;44.708;37.644;2023-01-01T17:49:44;10.92;80.78
75786;DHT22;64402;44.708;37.644;2023-01-01T17:52:11;10.89;80.77
75786;DHT22;64402;44.708;37.644;2023-01-01T17:54:37;10.88;81.21
75786;DHT22;64402;44.708;37.644;2023-01-01T17:57:13;10.86;81.72
75786;DHT22;64402;44.708;37.644;2023-01-01T17:59:39;10.85;81.91
75786;DHT22;64402;44.708;37.644;2023-01-01T18:02:11;10.87;81.81